Roxbury, Kansas
Current Conditions -  °F | °C
As of 7:53 AM on Monday 24 Nov 2014 (Local Time) from KSLN Reporting Station
Clear Clear  
Wind Chill: 28°   Ceiling: Unl
Heat Index: 37°   Visibility: 10mi
Dew Point: 22°   Wind: 15mph
Humidity: 54%   Direction: 290°WNW
Pressure: 29.79"   Gusts: NA
Location:  38.55°N, 97.43°W
Report Text: KSLN 241353Z 29013KT 10SM CLR 03/M06 A2979 RMK AO2 SLP092 T00281056
Loading
Personal Weather Stations






























Interactive Weather Map New forecast layout! Learn more

10-Day Weather Forecast

Advertisements
Track Severe Weather on mobile